sensor_id;sensor_type;location;lat;lon;timestamp;temperature;humidity
6841;DHT22;3458;53.678;14.080;2022-10-17T00:00:34;13.10;99.90
6841;DHT22;3458;53.678;14.080;2022-10-17T00:03:00;13.10;99.90
6841;DHT22;3458;53.678;14.080;2022-10-17T00:05:25;13.10;99.90
6841;DHT22;3458;53.678;14.080;2022-10-17T00:07:58;13.10;99.90
6841;DHT22;3458;53.678;14.080;2022-10-17T00:10:27;13.10;99.90
6841;DHT22;3458;53.678;14.080;2022-10-17T00:12:52;13.10;99.90
6841;DHT22;3458;53.678;14.080;2022-10-17T00:15:25;13.10;99.90
6841;DHT22;3458;53.678;14.080;2022-10-17T00:17:50;13.00;99.90
6841;DHT22;3458;53.678;14.080;2022-10-17T00:20:16;13.00;99.90
6841;DHT22;3458;53.678;14.080;2022-10-17T00:22:42;13.00;99.90
6841;DHT22;3458;53.678;14.080;2022-10-17T00:25:08;13.00;99.90
6841;DHT22;3458;53.678;14.080;2022-10-17T00:27:35;13.00;99.90
6841;DHT22;3458;53.678;14.080;2022-10-17T00:30:01;12.90;99.90
6841;DHT22;3458;53.678;14.080;2022-10-17T00:32:26;12.90;99.90
6841;DHT22;3458;53.678;14.080;2022-10-17T00:34:52;12.90;99.90
6841;DHT22;3458;53.678;14.080;2022-10-17T00:37:17;12.90;99.90
6841;DHT22;3458;53.678;14.080;2022-10-17T00:39:43;12.80;99.90
6841;DHT22;3458;53.678;14.080;2022-10-17T00:42:11;12.80;99.90
6841;DHT22;3458;53.678;14.080;2022-10-17T00:47:08;12.80;99.90
6841;DHT22;3458;53.678;14.080;2022-10-17T00:49:35;12.80;99.90
6841;DHT22;3458;53.678;14.080;2022-10-17T00:52:08;12.80;99.90
6841;DHT22;3458;53.678;14.080;2022-10-17T00:54:40;12.80;99.90
6841;DHT22;3458;53.678;14.080;2022-10-17T00:57:07;12.80;99.90
6841;DHT22;3458;53.678;14.080;2022-10-17T00:59:35;12.80;99.90
6841;DHT22;3458;53.678;14.080;2022-10-17T01:02:08;12.80;99.90
6841;DHT22;3458;53.678;14.080;2022-10-17T01:04:36;12.80;99.90
6841;DHT22;3458;53.678;14.080;2022-10-17T01:07:01;12.80;99.90
6841;DHT22;3458;53.678;14.080;2022-10-17T01:09:27;12.80;99.90
6841;DHT22;3458;53.678;14.080;2022-10-17T01:12:10;12.80;99.90
6841;DHT22;3458;53.678;14.080;2022-10-17T01:14:48;12.80;99.90
6841;DHT22;3458;53.678;14.080;2022-10-17T01:20:40;12.80;99.90
6841;DHT22;3458;53.678;14.080;2022-10-17T01:26:25;12.90;99.90
6841;DHT22;3458;53.678;14.080;2022-10-17T01:29:25;12.80;99.90
6841;DHT22;3458;53.678;14.080;2022-10-17T01:32:14;12.90;99.90
6841;DHT22;3458;53.678;14.080;2022-10-17T01:34:54;12.90;99.90
6841;DHT22;3458;53.678;14.080;2022-10-17T01:37:36;12.90;99.90
6841;DHT22;3458;53.678;14.080;2022-10-17T01:40:19;12.90;99.90
6841;DHT22;3458;53.678;14.080;2022-10-17T01:42:58;12.90;99.90
6841;DHT22;3458;53.678;14.080;2022-10-17T01:48:47;13.00;99.90
6841;DHT22;3458;53.678;14.080;2022-10-17T01:51:27;13.00;99.90
6841;DHT22;3458;53.678;14.080;2022-10-17T01:54:01;13.00;99.90
6841;DHT22;3458;53.678;14.080;2022-10-17T01:56:30;13.00;99.90
6841;DHT22;3458;53.678;14.080;2022-10-17T01:59:10;13.00;99.90
6841;DHT22;3458;53.678;14.080;2022-10-17T02:01:41;13.00;99.90
6841;DHT22;3458;53.678;14.080;2022-10-17T02:04:09;13.00;99.90
6841;DHT22;3458;53.678;14.080;2022-10-17T02:06:36;13.00;99.90
6841;DHT22;3458;53.678;14.080;2022-10-17T02:09:20;13.00;99.90
6841;DHT22;3458;53.678;14.080;2022-10-17T02:14:52;13.00;99.90
6841;DHT22;3458;53.678;14.080;2022-10-17T02:17:54;13.00;99.90
6841;DHT22;3458;53.678;14.080;2022-10-17T02:23:25;13.00;99.90
6841;DHT22;3458;53.678;14.080;2022-10-17T02:26:18;13.00;99.90
6841;DHT22;3458;53.678;14.080;2022-10-17T02:28:51;13.00;99.90
6841;DHT22;3458;53.678;14.080;2022-10-17T02:31:25;13.00;99.90
6841;DHT22;3458;53.678;14.080;2022-10-17T02:34:00;13.00;99.90
6841;DHT22;3458;53.678;14.080;2022-10-17T02:36:31;13.10;99.90
6841;DHT22;3458;53.678;14.080;2022-10-17T02:39:00;13.10;99.90
6841;DHT22;3458;53.678;14.080;2022-10-17T02:41:27;13.10;99.90
6841;DHT22;3458;53.678;14.080;2022-10-17T02:43:54;13.10;99.90
6841;DHT22;3458;53.678;14.080;2022-10-17T02:46:22;13.20;99.90
6841;DHT22;3458;53.678;14.080;2022-10-17T02:49:02;13.20;99.90
6841;DHT22;3458;53.678;14.080;2022-10-17T02:51:41;13.20;99.90
6841;DHT22;3458;53.678;14.080;2022-10-17T02:54:18;13.20;99.90
6841;DHT22;3458;53.678;14.080;2022-10-17T02:56:57;13.30;99.90
6841;DHT22;3458;53.678;14.080;2022-10-17T02:59:25;13.30;99.90
6841;DHT22;3458;53.678;14.080;2022-10-17T03:01:51;13.30;99.90
6841;DHT22;3458;53.678;14.080;2022-10-17T03:04:18;13.30;99.90
6841;DHT22;3458;53.678;14.080;2022-10-17T03:06:45;13.30;99.90
6841;DHT22;3458;53.678;14.080;2022-10-17T03:09:11;13.30;99.90
6841;DHT22;3458;53.678;14.080;2022-10-17T03:11:37;13.30;99.90
6841;DHT22;3458;53.678;14.080;2022-10-17T03:14:02;13.30;99.90
6841;DHT22;3458;53.678;14.080;2022-10-17T03:16:28;13.30;99.90
6841;DHT22;3458;53.678;14.080;2022-10-17T03:18:53;13.30;99.90
6841;DHT22;3458;53.678;14.080;2022-10-17T03:21:19;13.40;99.90
6841;DHT22;3458;53.678;14.080;2022-10-17T03:23:44;13.40;99.90
6841;DHT22;3458;53.678;14.080;2022-10-17T03:26:10;13.40;99.90
6841;DHT22;3458;53.678;14.080;2022-10-17T03:28:36;13.40;99.90
6841;DHT22;3458;53.678;14.080;2022-10-17T03:31:20;13.40;99.90
6841;DHT22;3458;53.678;14.080;2022-10-17T03:33:45;13.40;99.90
6841;DHT22;3458;53.678;14.080;2022-10-17T03:36:14;13.50;99.90
6841;DHT22;3458;53.678;14.080;2022-10-17T03:38:40;13.50;99.90
6841;DHT22;3458;53.678;14.080;2022-10-17T03:41:06;13.40;99.90
6841;DHT22;3458;53.678;14.080;2022-10-17T03:43:32;13.50;99.90
6841;DHT22;3458;53.678;14.080;2022-10-17T03:45:58;13.40;99.90
6841;DHT22;3458;53.678;14.080;2022-10-17T03:48:24;13.50;99.90
6841;DHT22;3458;53.678;14.080;2022-10-17T03:50:50;13.40;99.90
6841;DHT22;3458;53.678;14.080;2022-10-17T03:53:16;13.30;99.90
6841;DHT22;3458;53.678;14.080;2022-10-17T03:55:42;13.30;99.90
6841;DHT22;3458;53.678;14.080;2022-10-17T03:58:07;13.30;99.90
6841;DHT22;3458;53.678;14.080;2022-10-17T04:00:35;13.30;99.90
6841;DHT22;3458;53.678;14.080;2022-10-17T04:03:00;13.30;99.90
6841;DHT22;3458;53.678;14.080;2022-10-17T04:05:26;13.30;99.90
6841;DHT22;3458;53.678;14.080;2022-10-17T04:07:51;13.30;99.90
6841;DHT22;3458;53.678;14.080;2022-10-17T04:10:17;13.30;99.90
6841;DHT22;3458;53.678;14.080;2022-10-17T04:12:42;13.30;99.90
6841;DHT22;3458;53.678;14.080;2022-10-17T04:15:08;13.30;99.90
6841;DHT22;3458;53.678;14.080;2022-10-17T04:17:34;13.30;99.90
6841;DHT22;3458;53.678;14.080;2022-10-17T04:19:59;13.30;99.90
6841;DHT22;3458;53.678;14.080;2022-10-17T04:22:25;13.30;99.90
6841;DHT22;3458;53.678;14.080;2022-10-17T04:24:51;13.30;99.90
6841;DHT22;3458;53.678;14.080;2022-10-17T04:27:16;13.30;99.90
6841;DHT22;3458;53.678;14.080;2022-10-17T04:29:42;13.30;99.90
6841;DHT22;3458;53.678;14.080;2022-10-17T04:32:08;13.30;99.90
6841;DHT22;3458;53.678;14.080;2022-10-17T04:34:34;13.30;99.90
6841;DHT22;3458;53.678;14.080;2022-10-17T04:36:59;13.30;99.90
6841;DHT22;3458;53.678;14.080;2022-10-17T04:39:25;13.30;99.90
6841;DHT22;3458;53.678;14.080;2022-10-17T04:41:50;13.30;99.90
6841;DHT22;3458;53.678;14.080;2022-10-17T04:44:16;13.30;99.90
6841;DHT22;3458;53.678;14.080;2022-10-17T04:46:41;13.30;99.90
6841;DHT22;3458;53.678;14.080;2022-10-17T04:49:07;13.30;99.90
6841;DHT22;3458;53.678;14.080;2022-10-17T04:51:33;13.30;99.90
6841;DHT22;3458;53.678;14.080;2022-10-17T04:53:59;13.30;99.90
6841;DHT22;3458;53.678;14.080;2022-10-17T04:56:24;13.40;99.90
6841;DHT22;3458;53.678;14.080;2022-10-17T04:58:50;13.40;99.90
6841;DHT22;3458;53.678;14.080;2022-10-17T05:01:18;13.40;99.90
6841;DHT22;3458;53.678;14.080;2022-10-17T05:03:44;13.40;99.90
6841;DHT22;3458;53.678;14.080;2022-10-17T05:06:15;13.40;99.90
6841;DHT22;3458;53.678;14.080;2022-10-17T05:08:40;13.40;99.90
6841;DHT22;3458;53.678;14.080;2022-10-17T05:11:20;13.40;99.90
6841;DHT22;3458;53.678;14.080;2022-10-17T05:13:51;13.40;99.90
6841;DHT22;3458;53.678;14.080;2022-10-17T05:16:16;13.40;99.90
6841;DHT22;3458;53.678;14.080;2022-10-17T05:18:42;13.40;99.90
6841;DHT22;3458;53.678;14.080;2022-10-17T05:21:07;13.40;99.90
6841;DHT22;3458;53.678;14.080;2022-10-17T05:23:33;13.50;99.90
6841;DHT22;3458;53.678;14.080;2022-10-17T05:25:59;13.40;99.90
6841;DHT22;3458;53.678;14.080;2022-10-17T05:28:24;13.40;99.90
6841;DHT22;3458;53.678;14.080;2022-10-17T05:30:50;13.40;99.90
6841;DHT22;3458;53.678;14.080;2022-10-17T05:33:16;13.40;99.90
6841;DHT22;3458;53.678;14.080;2022-10-17T05:35:42;13.40;99.90
6841;DHT22;3458;53.678;14.080;2022-10-17T05:38:07;13.40;99.90
6841;DHT22;3458;53.678;14.080;2022-10-17T05:40:33;13.40;99.90
6841;DHT22;3458;53.678;14.080;2022-10-17T05:42:58;13.40;99.90
6841;DHT22;3458;53.678;14.080;2022-10-17T05:45:24;13.40;99.90
6841;DHT22;3458;53.678;14.080;2022-10-17T05:47:49;13.40;99.90
6841;DHT22;3458;53.678;14.080;2022-10-17T05:50:16;13.40;99.90
6841;DHT22;3458;53.678;14.080;2022-10-17T05:52:41;13.40;99.90
6841;DHT22;3458;53.678;14.080;2022-10-17T05:55:07;13.40;99.90
6841;DHT22;3458;53.678;14.080;2022-10-17T05:57:33;13.40;99.90
6841;DHT22;3458;53.678;14.080;2022-10-17T05:59:58;13.40;99.90
6841;DHT22;3458;53.678;14.080;2022-10-17T06:02:25;13.30;99.90
6841;DHT22;3458;53.678;14.080;2022-10-17T06:04:50;13.40;99.90
6841;DHT22;3458;53.678;14.080;2022-10-17T06:07:16;13.40;99.90
6841;DHT22;3458;53.678;14.080;2022-10-17T06:09:41;13.40;99.90
6841;DHT22;3458;53.678;14.080;2022-10-17T06:12:07;13.50;99.90
6841;DHT22;3458;53.678;14.080;2022-10-17T06:14:33;13.50;99.90
6841;DHT22;3458;53.678;14.080;2022-10-17T06:16:59;13.50;99.90
6841;DHT22;3458;53.678;14.080;2022-10-17T06:19:25;13.60;99.90
6841;DHT22;3458;53.678;14.080;2022-10-17T06:21:51;13.60;99.90
6841;DHT22;3458;53.678;14.080;2022-10-17T06:24:16;13.50;99.90
6841;DHT22;3458;53.678;14.080;2022-10-17T06:26:42;13.50;99.90
6841;DHT22;3458;53.678;14.080;2022-10-17T06:29:08;13.60;99.90
6841;DHT22;3458;53.678;14.080;2022-10-17T06:31:34;13.60;99.90
6841;DHT22;3458;53.678;14.080;2022-10-17T06:33:59;13.60;99.90
6841;DHT22;3458;53.678;14.080;2022-10-17T06:36:25;13.60;99.90
6841;DHT22;3458;53.678;14.080;2022-10-17T06:38:50;13.70;99.90
6841;DHT22;3458;53.678;14.080;2022-10-17T06:41:16;13.70;99.90
6841;DHT22;3458;53.678;14.080;2022-10-17T06:43:44;13.70;99.90
6841;DHT22;3458;53.678;14.080;2022-10-17T06:46:14;13.80;99.90
6841;DHT22;3458;53.678;14.080;2022-10-17T06:48:40;13.80;99.90
6841;DHT22;3458;53.678;14.080;2022-10-17T06:51:06;13.80;99.90
6841;DHT22;3458;53.678;14.080;2022-10-17T06:53:34;13.80;99.90
6841;DHT22;3458;53.678;14.080;2022-10-17T06:56:01;13.80;99.90
6841;DHT22;3458;53.678;14.080;2022-10-17T06:58:29;13.90;99.90
6841;DHT22;3458;53.678;14.080;2022-10-17T07:00:59;13.90;99.90
6841;DHT22;3458;53.678;14.080;2022-10-17T07:03:25;13.90;99.90
6841;DHT22;3458;53.678;14.080;2022-10-17T07:05:51;13.90;99.90
6841;DHT22;3458;53.678;14.080;2022-10-17T07:08:17;13.90;99.90
6841;DHT22;3458;53.678;14.080;2022-10-17T07:10:43;14.00;99.90
6841;DHT22;3458;53.678;14.080;2022-10-17T07:13:08;14.00;99.90
6841;DHT22;3458;53.678;14.080;2022-10-17T07:15:35;14.10;99.90
6841;DHT22;3458;53.678;14.080;2022-10-17T07:18:01;14.20;99.90
6841;DHT22;3458;53.678;14.080;2022-10-17T07:20:27;14.30;99.90
6841;DHT22;3458;53.678;14.080;2022-10-17T07:22:52;14.30;99.90
6841;DHT22;3458;53.678;14.080;2022-10-17T07:25:18;14.40;99.90
6841;DHT22;3458;53.678;14.080;2022-10-17T07:27:43;14.50;99.90
6841;DHT22;3458;53.678;14.080;2022-10-17T07:30:09;14.50;99.90
6841;DHT22;3458;53.678;14.080;2022-10-17T07:32:35;14.60;99.90
6841;DHT22;3458;53.678;14.080;2022-10-17T07:35:00;14.70;99.90
6841;DHT22;3458;53.678;14.080;2022-10-17T07:37:26;14.80;99.90
6841;DHT22;3458;53.678;14.080;2022-10-17T07:39:51;14.90;99.90
6841;DHT22;3458;53.678;14.080;2022-10-17T07:42:17;14.90;99.90
6841;DHT22;3458;53.678;14.080;2022-10-17T07:44:42;15.00;99.90
6841;DHT22;3458;53.678;14.080;2022-10-17T07:47:11;15.00;99.90
6841;DHT22;3458;53.678;14.080;2022-10-17T07:49:37;15.00;99.90
6841;DHT22;3458;53.678;14.080;2022-10-17T07:52:09;15.00;99.90
6841;DHT22;3458;53.678;14.080;2022-10-17T07:54:35;15.00;99.90
6841;DHT22;3458;53.678;14.080;2022-10-17T07:57:00;15.00;99.90
6841;DHT22;3458;53.678;14.080;2022-10-17T07:59:26;15.00;99.90
6841;DHT22;3458;53.678;14.080;2022-10-17T08:01:54;15.10;99.90
6841;DHT22;3458;53.678;14.080;2022-10-17T08:04:20;15.20;99.90
6841;DHT22;3458;53.678;14.080;2022-10-17T08:06:45;15.20;99.90
6841;DHT22;3458;53.678;14.080;2022-10-17T08:09:11;15.30;99.90
6841;DHT22;3458;53.678;14.080;2022-10-17T08:11:36;15.40;99.90
6841;DHT22;3458;53.678;14.080;2022-10-17T08:14:02;15.50;99.90
6841;DHT22;3458;53.678;14.080;2022-10-17T08:16:28;15.60;99.90
6841;DHT22;3458;53.678;14.080;2022-10-17T08:18:53;15.60;99.90
6841;DHT22;3458;53.678;14.080;2022-10-17T08:21:19;15.70;99.90
6841;DHT22;3458;53.678;14.080;2022-10-17T08:23:44;15.80;99.90
6841;DHT22;3458;53.678;14.080;2022-10-17T08:26:17;15.90;99.90
6841;DHT22;3458;53.678;14.080;2022-10-17T08:28:44;16.00;99.90
6841;DHT22;3458;53.678;14.080;2022-10-17T08:31:12;16.10;99.90
6841;DHT22;3458;53.678;14.080;2022-10-17T08:33:39;16.20;99.90
6841;DHT22;3458;53.678;14.080;2022-10-17T08:36:05;16.30;99.90
6841;DHT22;3458;53.678;14.080;2022-10-17T08:38:33;16.40;99.90
6841;DHT22;3458;53.678;14.080;2022-10-17T08:46:43;16.60;99.90
6841;DHT22;3458;53.678;14.080;2022-10-17T08:49:17;16.70;99.90
6841;DHT22;3458;53.678;14.080;2022-10-17T08:51:52;16.80;99.90
6841;DHT22;3458;53.678;14.080;2022-10-17T08:54:23;16.90;99.90
6841;DHT22;3458;53.678;14.080;2022-10-17T08:56:52;17.00;99.90
6841;DHT22;3458;53.678;14.080;2022-10-17T08:59:29;17.20;99.90
6841;DHT22;3458;53.678;14.080;2022-10-17T09:08:10;17.50;99.90
6841;DHT22;3458;53.678;14.080;2022-10-17T09:10:52;17.60;99.90
6841;DHT22;3458;53.678;14.080;2022-10-17T09:13:42;17.80;99.90
6841;DHT22;3458;53.678;14.080;2022-10-17T09:19:03;18.10;99.90
6841;DHT22;3458;53.678;14.080;2022-10-17T09:22:15;18.20;99.90
6841;DHT22;3458;53.678;14.080;2022-10-17T09:25:02;18.30;99.90
6841;DHT22;3458;53.678;14.080;2022-10-17T09:27:36;18.40;99.90
6841;DHT22;3458;53.678;14.080;2022-10-17T09:30:25;18.50;99.90
6841;DHT22;3458;53.678;14.080;2022-10-17T09:32:52;18.70;99.90
6841;DHT22;3458;53.678;14.080;2022-10-17T09:35:19;18.80;99.90
6841;DHT22;3458;53.678;14.080;2022-10-17T09:37:46;18.90;99.90
6841;DHT22;3458;53.678;14.080;2022-10-17T09:40:26;19.00;99.90
6841;DHT22;3458;53.678;14.080;2022-10-17T09:42:53;19.10;99.90
6841;DHT22;3458;53.678;14.080;2022-10-17T09:45:20;19.20;99.90
6841;DHT22;3458;53.678;14.080;2022-10-17T09:48:09;19.30;99.90
6841;DHT22;3458;53.678;14.080;2022-10-17T09:50:37;19.30;99.90
6841;DHT22;3458;53.678;14.080;2022-10-17T09:53:12;19.40;99.90
6841;DHT22;3458;53.678;14.080;2022-10-17T09:55:42;19.50;99.90
6841;DHT22;3458;53.678;14.080;2022-10-17T09:58:09;19.60;99.90
6841;DHT22;3458;53.678;14.080;2022-10-17T10:00:39;19.60;99.90
6841;DHT22;3458;53.678;14.080;2022-10-17T10:03:19;19.70;99.90
6841;DHT22;3458;53.678;14.080;2022-10-17T10:06:04;19.80;99.90
6841;DHT22;3458;53.678;14.080;2022-10-17T10:08:34;20.00;99.90
6841;DHT22;3458;53.678;14.080;2022-10-17T10:11:05;20.10;99.90
6841;DHT22;3458;53.678;14.080;2022-10-17T10:13:33;20.20;99.90
6841;DHT22;3458;53.678;14.080;2022-10-17T10:16:20;20.30;99.90
6841;DHT22;3458;53.678;14.080;2022-10-17T10:18:47;20.40;99.90
6841;DHT22;3458;53.678;14.080;2022-10-17T10:21:18;20.40;99.90
6841;DHT22;3458;53.678;14.080;2022-10-17T10:24:02;20.50;99.90
6841;DHT22;3458;53.678;14.080;2022-10-17T10:26:46;20.60;99.90
6841;DHT22;3458;53.678;14.080;2022-10-17T10:31:53;20.80;99.90
6841;DHT22;3458;53.678;14.080;2022-10-17T10:34:22;20.90;99.90
6841;DHT22;3458;53.678;14.080;2022-10-17T10:37:16;21.00;99.90
6841;DHT22;3458;53.678;14.080;2022-10-17T10:39:51;21.20;99.90
6841;DHT22;3458;53.678;14.080;2022-10-17T10:42:29;21.40;99.90
6841;DHT22;3458;53.678;14.080;2022-10-17T10:45:03;21.50;99.90
6841;DHT22;3458;53.678;14.080;2022-10-17T10:47:30;21.50;99.90
6841;DHT22;3458;53.678;14.080;2022-10-17T10:50:39;21.40;99.90
6841;DHT22;3458;53.678;14.080;2022-10-17T10:56:13;21.20;99.90
6841;DHT22;3458;53.678;14.080;2022-10-17T10:59:02;21.00;99.90
6841;DHT22;3458;53.678;14.080;2022-10-17T11:01:41;20.80;99.90
6841;DHT22;3458;53.678;14.080;2022-10-17T11:04:13;20.80;99.90
6841;DHT22;3458;53.678;14.080;2022-10-17T11:06:44;20.90;99.90
6841;DHT22;3458;53.678;14.080;2022-10-17T11:09:33;21.00;99.90
6841;DHT22;3458;53.678;14.080;2022-10-17T11:12:06;21.20;99.90
6841;DHT22;3458;53.678;14.080;2022-10-17T11:14:51;21.40;99.90
6841;DHT22;3458;53.678;14.080;2022-10-17T11:23:33;21.90;99.90
6841;DHT22;3458;53.678;14.080;2022-10-17T11:26:12;22.10;99.90
6841;DHT22;3458;53.678;14.080;2022-10-17T11:28:40;22.30;99.90
6841;DHT22;3458;53.678;14.080;2022-10-17T11:31:12;22.40;99.90
6841;DHT22;3458;53.678;14.080;2022-10-17T11:33:43;22.50;99.90
6841;DHT22;3458;53.678;14.080;2022-10-17T11:36:10;22.40;99.90
6841;DHT22;3458;53.678;14.080;2022-10-17T11:38:57;22.40;99.90
6841;DHT22;3458;53.678;14.080;2022-10-17T11:41:46;22.50;99.90
6841;DHT22;3458;53.678;14.080;2022-10-17T11:47:12;22.40;99.90
6841;DHT22;3458;53.678;14.080;2022-10-17T11:49:46;22.40;99.90
6841;DHT22;3458;53.678;14.080;2022-10-17T11:52:55;22.20;99.90
6841;DHT22;3458;53.678;14.080;2022-10-17T11:55:23;22.10;99.90
6841;DHT22;3458;53.678;14.080;2022-10-17T11:58:04;22.00;99.90
6841;DHT22;3458;53.678;14.080;2022-10-17T12:03:57;21.90;99.90
6841;DHT22;3458;53.678;14.080;2022-10-17T12:06:49;22.00;99.90
6841;DHT22;3458;53.678;14.080;2022-10-17T12:09:33;22.10;99.90
6841;DHT22;3458;53.678;14.080;2022-10-17T12:12:03;22.30;99.90
6841;DHT22;3458;53.678;14.080;2022-10-17T12:14:41;22.50;99.90
6841;DHT22;3458;53.678;14.080;2022-10-17T12:17:33;22.60;99.90
6841;DHT22;3458;53.678;14.080;2022-10-17T12:25:54;22.70;99.90
6841;DHT22;3458;53.678;14.080;2022-10-17T12:28:26;22.70;99.90
6841;DHT22;3458;53.678;14.080;2022-10-17T12:31:21;22.80;99.90
6841;DHT22;3458;53.678;14.080;2022-10-17T12:33:54;22.80;99.90
6841;DHT22;3458;53.678;14.080;2022-10-17T12:46:55;24.00;99.90
6841;DHT22;3458;53.678;14.080;2022-10-17T12:49:37;24.20;99.90
6841;DHT22;3458;53.678;14.080;2022-10-17T12:52:25;24.40;99.90
6841;DHT22;3458;53.678;14.080;2022-10-17T12:57:47;25.00;99.90
6841;DHT22;3458;53.678;14.080;2022-10-17T13:03:16;25.70;99.90
6841;DHT22;3458;53.678;14.080;2022-10-17T13:05:47;25.70;99.90
6841;DHT22;3458;53.678;14.080;2022-10-17T13:08:23;25.70;99.90
6841;DHT22;3458;53.678;14.080;2022-10-17T13:10:51;25.90;99.90
6841;DHT22;3458;53.678;14.080;2022-10-17T13:13:24;26.10;99.90
6841;DHT22;3458;53.678;14.080;2022-10-17T13:15:53;26.10;99.90
6841;DHT22;3458;53.678;14.080;2022-10-17T13:18:25;25.90;99.90
6841;DHT22;3458;53.678;14.080;2022-10-17T13:21:03;26.00;99.90
6841;DHT22;3458;53.678;14.080;2022-10-17T13:23:36;26.00;99.90
6841;DHT22;3458;53.678;14.080;2022-10-17T13:26:03;25.90;99.90
6841;DHT22;3458;53.678;14.080;2022-10-17T13:28:29;25.50;99.90
6841;DHT22;3458;53.678;14.080;2022-10-17T13:30:54;25.10;99.90
6841;DHT22;3458;53.678;14.080;2022-10-17T13:33:37;24.70;99.90
6841;DHT22;3458;53.678;14.080;2022-10-17T13:36:06;24.30;99.90
6841;DHT22;3458;53.678;14.080;2022-10-17T13:38:37;24.00;99.90
6841;DHT22;3458;53.678;14.080;2022-10-17T13:41:03;23.70;99.90
6841;DHT22;3458;53.678;14.080;2022-10-17T13:43:34;23.50;99.90
6841;DHT22;3458;53.678;14.080;2022-10-17T13:46:01;23.60;99.90
6841;DHT22;3458;53.678;14.080;2022-10-17T13:48:31;23.80;99.90
6841;DHT22;3458;53.678;14.080;2022-10-17T13:50:59;24.10;99.90
6841;DHT22;3458;53.678;14.080;2022-10-17T13:56:03;24.90;99.90
6841;DHT22;3458;53.678;14.080;2022-10-17T13:58:42;25.40;99.90
6841;DHT22;3458;53.678;14.080;2022-10-17T14:01:10;25.80;99.90
6841;DHT22;3458;53.678;14.080;2022-10-17T14:03:36;26.00;99.90
6841;DHT22;3458;53.678;14.080;2022-10-17T14:06:23;26.20;99.90
6841;DHT22;3458;53.678;14.080;2022-10-17T14:08:59;26.00;99.90
6841;DHT22;3458;53.678;14.080;2022-10-17T14:11:36;25.80;99.90
6841;DHT22;3458;53.678;14.080;2022-10-17T14:14:04;25.40;99.90
6841;DHT22;3458;53.678;14.080;2022-10-17T14:16:39;25.10;99.90
6841;DHT22;3458;53.678;14.080;2022-10-17T14:19:19;25.00;99.90
6841;DHT22;3458;53.678;14.080;2022-10-17T14:21:48;25.20;99.90
6841;DHT22;3458;53.678;14.080;2022-10-17T14:24:34;25.30;99.90
6841;DHT22;3458;53.678;14.080;2022-10-17T14:26:59;25.30;99.90
6841;DHT22;3458;53.678;14.080;2022-10-17T14:29:31;25.10;99.90
6841;DHT22;3458;53.678;14.080;2022-10-17T14:31:59;25.10;99.90
6841;DHT22;3458;53.678;14.080;2022-10-17T14:34:38;25.30;99.90
6841;DHT22;3458;53.678;14.080;2022-10-17T14:39:53;25.90;99.90
6841;DHT22;3458;53.678;14.080;2022-10-17T14:42:22;26.30;99.90
6841;DHT22;3458;53.678;14.080;2022-10-17T14:44:49;26.50;99.90
6841;DHT22;3458;53.678;14.080;2022-10-17T14:47:24;26.40;99.70
6841;DHT22;3458;53.678;14.080;2022-10-17T14:50:05;25.80;99.90
6841;DHT22;3458;53.678;14.080;2022-10-17T14:52:32;25.10;99.90
6841;DHT22;3458;53.678;14.080;2022-10-17T14:54:59;24.50;99.90
6841;DHT22;3458;53.678;14.080;2022-10-17T14:59:58;23.70;99.90
6841;DHT22;3458;53.678;14.080;2022-10-17T15:02:25;23.30;99.90
6841;DHT22;3458;53.678;14.080;2022-10-17T15:04:51;23.00;99.90
6841;DHT22;3458;53.678;14.080;2022-10-17T15:07:17;22.80;99.90
6841;DHT22;3458;53.678;14.080;2022-10-17T15:09:44;22.70;99.90
6841;DHT22;3458;53.678;14.080;2022-10-17T15:12:22;22.50;99.90
6841;DHT22;3458;53.678;14.080;2022-10-17T15:14:49;22.40;99.90
6841;DHT22;3458;53.678;14.080;2022-10-17T15:17:34;22.30;99.90
6841;DHT22;3458;53.678;14.080;2022-10-17T15:19:59;22.10;99.90
6841;DHT22;3458;53.678;14.080;2022-10-17T15:22:25;22.10;99.90
6841;DHT22;3458;53.678;14.080;2022-10-17T15:24:50;22.10;99.90
6841;DHT22;3458;53.678;14.080;2022-10-17T15:27:19;22.00;99.90
6841;DHT22;3458;53.678;14.080;2022-10-17T15:29:45;21.90;99.90
6841;DHT22;3458;53.678;14.080;2022-10-17T15:32:11;21.80;99.90
6841;DHT22;3458;53.678;14.080;2022-10-17T15:34:37;21.70;99.90
6841;DHT22;3458;53.678;14.080;2022-10-17T15:37:03;21.60;99.90
6841;DHT22;3458;53.678;14.080;2022-10-17T15:39:30;21.60;99.90
6841;DHT22;3458;53.678;14.080;2022-10-17T15:41:55;21.60;99.90
6841;DHT22;3458;53.678;14.080;2022-10-17T15:44:21;21.50;99.90
6841;DHT22;3458;53.678;14.080;2022-10-17T15:46:47;21.50;99.90
6841;DHT22;3458;53.678;14.080;2022-10-17T15:49:15;21.40;99.90
6841;DHT22;3458;53.678;14.080;2022-10-17T15:51:42;21.40;99.90
6841;DHT22;3458;53.678;14.080;2022-10-17T15:54:07;21.30;99.90
6841;DHT22;3458;53.678;14.080;2022-10-17T15:56:39;21.30;99.90
6841;DHT22;3458;53.678;14.080;2022-10-17T15:59:11;21.20;99.90
6841;DHT22;3458;53.678;14.080;2022-10-17T16:01:38;21.20;99.90
6841;DHT22;3458;53.678;14.080;2022-10-17T16:04:04;21.20;99.90
6841;DHT22;3458;53.678;14.080;2022-10-17T16:06:30;21.10;99.90
6841;DHT22;3458;53.678;14.080;2022-10-17T16:08:55;21.10;99.90
6841;DHT22;3458;53.678;14.080;2022-10-17T16:11:39;21.00;99.90
6841;DHT22;3458;53.678;14.080;2022-10-17T16:14:08;21.00;99.90
6841;DHT22;3458;53.678;14.080;2022-10-17T16:16:34;21.00;99.90
6841;DHT22;3458;53.678;14.080;2022-10-17T16:18:59;21.00;99.90
6841;DHT22;3458;53.678;14.080;2022-10-17T16:21:28;20.90;99.90
6841;DHT22;3458;53.678;14.080;2022-10-17T16:23:55;20.90;99.90
6841;DHT22;3458;53.678;14.080;2022-10-17T16:26:20;20.90;99.90
6841;DHT22;3458;53.678;14.080;2022-10-17T16:28:46;20.90;99.90
6841;DHT22;3458;53.678;14.080;2022-10-17T16:31:25;20.80;99.90
6841;DHT22;3458;53.678;14.080;2022-10-17T16:33:54;20.80;99.90
6841;DHT22;3458;53.678;14.080;2022-10-17T16:36:21;20.80;99.90
6841;DHT22;3458;53.678;14.080;2022-10-17T16:38:46;20.80;99.90
6841;DHT22;3458;53.678;14.080;2022-10-17T16:41:30;20.80;99.90
6841;DHT22;3458;53.678;14.080;2022-10-17T16:43:58;20.80;99.90
6841;DHT22;3458;53.678;14.080;2022-10-17T16:46:26;20.80;99.90
6841;DHT22;3458;53.678;14.080;2022-10-17T16:48:52;20.70;99.90
6841;DHT22;3458;53.678;14.080;2022-10-17T16:51:19;20.80;99.90
6841;DHT22;3458;53.678;14.080;2022-10-17T16:53:46;20.70;99.90
6841;DHT22;3458;53.678;14.080;2022-10-17T16:56:16;20.70;99.90
6841;DHT22;3458;53.678;14.080;2022-10-17T16:58:42;20.70;99.90
6841;DHT22;3458;53.678;14.080;2022-10-17T17:01:15;20.70;99.90
6841;DHT22;3458;53.678;14.080;2022-10-17T17:03:42;20.70;99.90
6841;DHT22;3458;53.678;14.080;2022-10-17T17:06:12;20.70;99.90
6841;DHT22;3458;53.678;14.080;2022-10-17T17:08:38;20.70;99.90
6841;DHT22;3458;53.678;14.080;2022-10-17T17:11:07;20.80;99.90
6841;DHT22;3458;53.678;14.080;2022-10-17T17:13:33;20.70;99.90
6841;DHT22;3458;53.678;14.080;2022-10-17T17:16:07;20.70;99.90
6841;DHT22;3458;53.678;14.080;2022-10-17T17:18:34;20.80;99.90
6841;DHT22;3458;53.678;14.080;2022-10-17T17:21:01;20.80;99.90
6841;DHT22;3458;53.678;14.080;2022-10-17T17:23:28;20.70;99.90
6841;DHT22;3458;53.678;14.080;2022-10-17T17:25:58;20.70;99.90